sensor_id;sensor_type;location;lat;lon;timestamp;pressure;altitude;pressure_sealevel;temperature;humidity
75497;BME280;64074;47.540;19.072;2023-04-03T00:02:51;100474.59;;;7.30;57.76
75497;BME280;64074;47.540;19.072;2023-04-03T00:05:55;100475.41;;;7.41;56.76
75497;BME280;64074;47.540;19.072;2023-04-03T00:08:59;100481.88;;;7.55;56.64
75497;BME280;64074;47.540;19.072;2023-04-03T00:12:02;100488.59;;;7.68;56.43
75497;BME280;64074;47.540;19.072;2023-04-03T00:15:05;100476.47;;;7.55;56.91
75497;BME280;64074;47.540;19.072;2023-04-03T00:18:09;100475.69;;;7.50;56.52
75497;BME280;64074;47.540;19.072;2023-04-03T00:21:13;100477.03;;;7.32;57.26
75497;BME280;64074;47.540;19.072;2023-04-03T00:24:15;100483.19;;;7.63;56.21
75497;BME280;64074;47.540;19.072;2023-04-03T00:27:19;100485.13;;;7.27;57.02
75497;BME280;64074;47.540;19.072;2023-04-03T00:30:22;100481.34;;;7.48;56.18
75497;BME280;64074;47.540;19.072;2023-04-03T00:33:25;100490.25;;;7.54;56.33
75497;BME280;64074;47.540;19.072;2023-04-03T00:36:28;100493.47;;;7.71;55.99
75497;BME280;64074;47.540;19.072;2023-04-03T00:39:31;100488.38;;;7.44;56.72
75497;BME280;64074;47.540;19.072;2023-04-03T00:42:35;100488.91;;;7.21;57.08
75497;BME280;64074;47.540;19.072;2023-04-03T00:45:40;100495.38;;;7.25;57.09
75497;BME280;64074;47.540;19.072;2023-04-03T00:48:45;100487.28;;;7.45;56.24
75497;BME280;64074;47.540;19.072;2023-04-03T00:51:49;100494.28;;;7.41;56.78
75497;BME280;64074;47.540;19.072;2023-04-03T00:54:56;100492.13;;;7.53;55.70
75497;BME280;64074;47.540;19.072;2023-04-03T00:58:01;100504.00;;;7.52;55.91
75497;BME280;64074;47.540;19.072;2023-04-03T01:01:08;100501.03;;;7.44;55.87
75497;BME280;64074;47.540;19.072;2023-04-03T01:04:34;100506.16;;;7.45;56.21
75497;BME280;64074;47.540;19.072;2023-04-03T01:07:38;100506.69;;;7.52;55.51
75497;BME280;64074;47.540;19.072;2023-04-03T01:10:42;100503.47;;;7.55;55.41
75497;BME280;64074;47.540;19.072;2023-04-03T01:13:46;100508.84;;;7.55;55.36
75497;BME280;64074;47.540;19.072;2023-04-03T01:16:55;100505.91;;;7.47;55.29
75497;BME280;64074;47.540;19.072;2023-04-03T01:27:10;100506.13;;;7.65;55.01
75497;BME280;64074;47.540;19.072;2023-04-03T01:30:17;100484.59;;;7.25;56.22
75497;BME280;64074;47.540;19.072;2023-04-03T01:33:20;100492.41;;;7.31;55.57
75497;BME280;64074;47.540;19.072;2023-04-03T01:36:27;100500.22;;;7.28;55.66
75497;BME280;64074;47.540;19.072;2023-04-03T01:39:31;100506.69;;;7.12;56.13
75497;BME280;64074;47.540;19.072;2023-04-03T01:42:35;100492.41;;;7.26;55.43
75497;BME280;64074;47.540;19.072;2023-04-03T01:45:39;100510.97;;;7.18;55.53
75497;BME280;64074;47.540;19.072;2023-04-03T01:48:43;100508.03;;;7.04;55.61
75497;BME280;64074;47.540;19.072;2023-04-03T01:51:47;100505.88;;;7.11;55.29
75497;BME280;64074;47.540;19.072;2023-04-03T01:54:50;100516.59;;;6.86;56.62
75497;BME280;64074;47.540;19.072;2023-04-03T01:57:53;100508.25;;;6.77;56.07
75497;BME280;64074;47.540;19.072;2023-04-03T02:00:56;100524.16;;;6.84;56.58
75497;BME280;64074;47.540;19.072;2023-04-03T02:04:00;100524.63;;;6.65;56.03
75497;BME280;64074;47.540;19.072;2023-04-03T02:07:03;100526.63;;;6.95;55.80
75497;BME280;64074;47.540;19.072;2023-04-03T02:10:07;100528.63;;;6.47;56.71
75497;BME280;64074;47.540;19.072;2023-04-03T02:13:10;100526.56;;;6.85;56.08
75497;BME280;64074;47.540;19.072;2023-04-03T02:16:14;100524.94;;;6.79;56.44
75497;BME280;64074;47.540;19.072;2023-04-03T02:19:17;100527.09;;;6.82;55.93
75497;BME280;64074;47.540;19.072;2023-04-03T02:22:19;100527.84;;;6.57;57.68
75497;BME280;64074;47.540;19.072;2023-04-03T02:25:22;100531.00;;;6.44;57.10
75497;BME280;64074;47.540;19.072;2023-04-03T02:28:25;100528.66;;;6.68;56.67
75497;BME280;64074;47.540;19.072;2023-04-03T02:31:29;100520.03;;;6.66;56.74
75497;BME280;64074;47.540;19.072;2023-04-03T02:34:34;100529.44;;;6.53;57.33
75497;BME280;64074;47.540;19.072;2023-04-03T02:37:39;100521.38;;;6.53;56.76
75497;BME280;64074;47.540;19.072;2023-04-03T02:40:42;100528.91;;;6.51;57.43
75497;BME280;64074;47.540;19.072;2023-04-03T02:43:45;100530.19;;;6.43;57.48
75497;BME280;64074;47.540;19.072;2023-04-03T02:46:48;100522.44;;;6.57;56.69
75497;BME280;64074;47.540;19.072;2023-04-03T02:49:52;100522.72;;;6.61;56.64
75497;BME280;64074;47.540;19.072;2023-04-03T02:52:55;100526.41;;;6.34;58.05
75497;BME280;64074;47.540;19.072;2023-04-03T02:55:59;100531.91;;;6.07;58.59
75497;BME280;64074;47.540;19.072;2023-04-03T02:59:02;100530.19;;;6.43;57.07
75497;BME280;64074;47.540;19.072;2023-04-03T03:02:10;100528.78;;;6.26;57.94
75497;BME280;64074;47.540;19.072;2023-04-03T03:05:13;100533.38;;;6.30;58.15
75497;BME280;64074;47.540;19.072;2023-04-03T03:08:16;100524.22;;;6.26;57.71
75497;BME280;64074;47.540;19.072;2023-04-03T03:11:22;100533.66;;;6.34;57.61
75497;BME280;64074;47.540;19.072;2023-04-03T03:14:25;100535.25;;;6.30;57.77
75497;BME280;64074;47.540;19.072;2023-04-03T03:17:29;100534.84;;;6.01;58.85
75497;BME280;64074;47.540;19.072;2023-04-03T03:20:33;100545.22;;;6.29;57.75
75497;BME280;64074;47.540;19.072;2023-04-03T03:23:37;100537.38;;;6.23;57.95
75497;BME280;64074;47.540;19.072;2023-04-03T03:26:41;100544.81;;;6.05;58.16
75497;BME280;64074;47.540;19.072;2023-04-03T03:29:44;100542.13;;;6.05;58.31
75497;BME280;64074;47.540;19.072;2023-04-03T03:32:49;100543.78;;;6.16;58.29
75497;BME280;64074;47.540;19.072;2023-04-03T03:35:53;100547.38;;;6.27;58.62
75497;BME280;64074;47.540;19.072;2023-04-03T03:38:57;100538.06;;;5.98;59.20
75497;BME280;64074;47.540;19.072;2023-04-03T03:41:59;100541.97;;;5.85;59.15
75497;BME280;64074;47.540;19.072;2023-04-03T03:45:04;100541.38;;;5.78;59.60
75497;BME280;64074;47.540;19.072;2023-04-03T03:48:09;100544.03;;;5.73;59.33
75497;BME280;64074;47.540;19.072;2023-04-03T03:51:11;100550.59;;;5.87;59.49
75497;BME280;64074;47.540;19.072;2023-04-03T03:54:15;100556.47;;;5.47;60.30
75497;BME280;64074;47.540;19.072;2023-04-03T03:57:18;100556.84;;;5.61;60.21
75497;BME280;64074;47.540;19.072;2023-04-03T04:00:22;100546.47;;;5.74;60.17
75497;BME280;64074;47.540;19.072;2023-04-03T04:03:29;100550.38;;;5.56;60.46
75497;BME280;64074;47.540;19.072;2023-04-03T04:06:32;100545.41;;;5.43;61.25
75497;BME280;64074;47.540;19.072;2023-04-03T04:09:39;100543.41;;;5.29;61.06
75497;BME280;64074;47.540;19.072;2023-04-03T04:12:43;100554.09;;;5.50;60.80
75497;BME280;64074;47.540;19.072;2023-04-03T04:15:46;100552.16;;;5.19;61.74
75497;BME280;64074;47.540;19.072;2023-04-03T04:18:51;100554.84;;;5.19;62.22
75497;BME280;64074;47.540;19.072;2023-04-03T04:21:54;100559.59;;;5.39;61.59
75497;BME280;64074;47.540;19.072;2023-04-03T04:24:58;100571.59;;;5.26;61.17
75497;BME280;64074;47.540;19.072;2023-04-03T04:28:01;100574.13;;;5.38;61.81
75497;BME280;64074;47.540;19.072;2023-04-03T04:31:03;100566.22;;;4.99;62.86
75497;BME280;64074;47.540;19.072;2023-04-03T04:34:07;100559.75;;;5.22;61.83
75497;BME280;64074;47.540;19.072;2023-04-03T04:37:12;100560.41;;;5.39;61.78
75497;BME280;64074;47.540;19.072;2023-04-03T04:40:15;100566.53;;;5.30;61.92
75497;BME280;64074;47.540;19.072;2023-04-03T04:43:19;100560.03;;;5.25;62.34
75497;BME280;64074;47.540;19.072;2023-04-03T04:46:25;100570.13;;;5.13;62.39
75497;BME280;64074;47.540;19.072;2023-04-03T04:49:32;100568.06;;;5.20;62.23
75497;BME280;64074;47.540;19.072;2023-04-03T04:52:35;100569.25;;;5.35;62.32
75497;BME280;64074;47.540;19.072;2023-04-03T04:55:48;100563.78;;;5.51;61.44
75497;BME280;64074;47.540;19.072;2023-04-03T04:59:04;100578.53;;;5.49;61.28
75497;BME280;64074;47.540;19.072;2023-04-03T05:02:10;100579.69;;;5.58;60.87
75497;BME280;64074;47.540;19.072;2023-04-03T05:05:23;100580.72;;;5.52;61.07
75497;BME280;64074;47.540;19.072;2023-04-03T05:08:27;100574.44;;;5.73;60.69
75497;BME280;64074;47.540;19.072;2023-04-03T05:11:31;100581.78;;;5.51;60.98
75497;BME280;64074;47.540;19.072;2023-04-03T05:14:35;100584.38;;;5.73;60.46
75497;BME280;64074;47.540;19.072;2023-04-03T05:17:41;100590.44;;;5.58;60.57
75497;BME280;64074;47.540;19.072;2023-04-03T05:20:48;100591.59;;;5.67;60.66
75497;BME280;64074;47.540;19.072;2023-04-03T05:23:54;100601.25;;;5.36;61.86
75497;BME280;64074;47.540;19.072;2023-04-03T05:26:57;100609.00;;;5.60;61.31
75497;BME280;64074;47.540;19.072;2023-04-03T05:30:01;100598.06;;;5.39;61.59
75497;BME280;64074;47.540;19.072;2023-04-03T05:33:06;100592.38;;;5.36;61.49
75497;BME280;64074;47.540;19.072;2023-04-03T05:36:24;100594.06;;;5.42;61.55
75497;BME280;64074;47.540;19.072;2023-04-03T05:39:50;100596.31;;;5.23;62.03
75497;BME280;64074;47.540;19.072;2023-04-03T05:42:56;100595.38;;;5.12;63.05
75497;BME280;64074;47.540;19.072;2023-04-03T05:46:02;100592.84;;;5.54;61.96
75497;BME280;64074;47.540;19.072;2023-04-03T05:49:06;100593.91;;;5.53;61.63
75497;BME280;64074;47.540;19.072;2023-04-03T05:52:26;100599.16;;;5.43;62.04
75497;BME280;64074;47.540;19.072;2023-04-03T05:55:31;100604.66;;;5.53;61.80
75497;BME280;64074;47.540;19.072;2023-04-03T05:58:34;100611.41;;;5.56;61.36
75497;BME280;64074;47.540;19.072;2023-04-03T06:01:38;100607.44;;;5.37;61.33
75497;BME280;64074;47.540;19.072;2023-04-03T06:04:41;100611.41;;;5.56;61.58
75497;BME280;64074;47.540;19.072;2023-04-03T06:07:48;100609.16;;;5.75;60.93
75497;BME280;64074;47.540;19.072;2023-04-03T06:10:52;100612.97;;;5.84;60.49
75497;BME280;64074;47.540;19.072;2023-04-03T06:13:56;100607.50;;;6.01;60.19
75497;BME280;64074;47.540;19.072;2023-04-03T06:17:00;100602.44;;;6.09;60.44
75497;BME280;64074;47.540;19.072;2023-04-03T06:20:04;100612.91;;;6.06;59.57
75497;BME280;64074;47.540;19.072;2023-04-03T06:23:11;100607.81;;;6.09;59.64
75497;BME280;64074;47.540;19.072;2023-04-03T06:26:15;100612.94;;;6.11;59.77
75497;BME280;64074;47.540;19.072;2023-04-03T06:29:19;100609.81;;;6.24;58.90
75497;BME280;64074;47.540;19.072;2023-04-03T06:32:24;100615.81;;;6.36;59.35
75497;BME280;64074;47.540;19.072;2023-04-03T06:35:27;100613.47;;;6.50;58.40
75497;BME280;64074;47.540;19.072;2023-04-03T06:38:34;100619.78;;;6.76;58.40
75497;BME280;64074;47.540;19.072;2023-04-03T06:41:37;100615.78;;;6.94;57.60
75497;BME280;64074;47.540;19.072;2023-04-03T06:44:41;100622.59;;;7.01;55.44
75497;BME280;64074;47.540;19.072;2023-04-03T06:47:47;100621.31;;;7.24;54.71
75497;BME280;64074;47.540;19.072;2023-04-03T06:52:15;100617.81;;;7.39;52.39
75497;BME280;64074;47.540;19.072;2023-04-03T06:56:04;100620.53;;;7.54;51.59
75497;BME280;64074;47.540;19.072;2023-04-03T06:59:11;100630.81;;;7.67;51.01
75497;BME280;64074;47.540;19.072;2023-04-03T07:02:17;100641.06;;;7.91;50.94
75497;BME280;64074;47.540;19.072;2023-04-03T07:05:21;100642.19;;;7.95;50.13
75497;BME280;64074;47.540;19.072;2023-04-03T07:08:26;100653.47;;;8.17;49.25
75497;BME280;64074;47.540;19.072;2023-04-03T07:11:29;100653.75;;;8.51;49.58
75497;BME280;64074;47.540;19.072;2023-04-03T07:14:34;100646.47;;;8.42;48.59
75497;BME280;64074;47.540;19.072;2023-04-03T07:17:39;100656.72;;;8.50;48.76
75497;BME280;64074;47.540;19.072;2023-04-03T07:20:44;100651.47;;;8.89;47.07
75497;BME280;64074;47.540;19.072;2023-04-03T07:23:48;100659.50;;;9.09;46.90
75497;BME280;64074;47.540;19.072;2023-04-03T07:26:52;100646.81;;;9.05;46.95
75497;BME280;64074;47.540;19.072;2023-04-03T07:29:57;100658.09;;;9.22;47.04
75497;BME280;64074;47.540;19.072;2023-04-03T07:33:01;100656.22;;;9.22;45.17
75497;BME280;64074;47.540;19.072;2023-04-03T07:36:07;100655.25;;;9.47;45.48
75497;BME280;64074;47.540;19.072;2023-04-03T07:39:11;100658.91;;;9.22;45.15
75497;BME280;64074;47.540;19.072;2023-04-03T07:42:20;100664.44;;;9.51;44.94
75497;BME280;64074;47.540;19.072;2023-04-03T07:46:00;100652.44;;;9.63;44.30
75497;BME280;64074;47.540;19.072;2023-04-03T07:49:57;100658.28;;;9.80;43.69
75497;BME280;64074;47.540;19.072;2023-04-03T07:53:26;100655.28;;;10.15;43.73
75497;BME280;64074;47.540;19.072;2023-04-03T07:56:29;100660.34;;;10.56;43.58
75497;BME280;64074;47.540;19.072;2023-04-03T07:59:33;100660.25;;;10.66;42.33
75497;BME280;64074;47.540;19.072;2023-04-03T08:02:37;100666.44;;;10.96;41.79
75497;BME280;64074;47.540;19.072;2023-04-03T08:05:43;100664.44;;;10.54;42.53
75497;BME280;64074;47.540;19.072;2023-04-03T08:08:47;100663.06;;;10.80;42.39
75497;BME280;64074;47.540;19.072;2023-04-03T08:11:50;100670.56;;;10.64;42.63
75497;BME280;64074;47.540;19.072;2023-04-03T08:14:55;100667.47;;;10.76;42.14
75497;BME280;64074;47.540;19.072;2023-04-03T08:18:00;100664.78;;;11.37;40.76
75497;BME280;64074;47.540;19.072;2023-04-03T08:21:10;100658.41;;;10.33;42.15
75497;BME280;64074;47.540;19.072;2023-04-03T08:24:16;100659.69;;;11.12;40.81
75497;BME280;64074;47.540;19.072;2023-04-03T08:27:20;100668.03;;;11.21;41.01
75497;BME280;64074;47.540;19.072;2023-04-03T08:30:23;100669.13;;;11.38;39.79
75497;BME280;64074;47.540;19.072;2023-04-03T08:33:26;100673.78;;;11.94;37.98
75497;BME280;64074;47.540;19.072;2023-04-03T08:36:31;100677.38;;;11.52;39.05
75497;BME280;64074;47.540;19.072;2023-04-03T08:39:47;100678.03;;;11.44;39.21
75497;BME280;64074;47.540;19.072;2023-04-03T08:49:06;100673.41;;;11.02;40.11
75497;BME280;64074;47.540;19.072;2023-04-03T08:53:32;100674.66;;;11.09;40.17
75497;BME280;64074;47.540;19.072;2023-04-03T08:58:07;100664.50;;;11.20;39.63
75497;BME280;64074;47.540;19.072;2023-04-03T09:01:38;100664.84;;;11.14;39.28
75497;BME280;64074;47.540;19.072;2023-04-03T09:04:45;100675.72;;;10.37;40.37
75497;BME280;64074;47.540;19.072;2023-04-03T09:08:00;100680.88;;;10.62;39.28
75497;BME280;64074;47.540;19.072;2023-04-03T09:11:26;100673.56;;;10.34;39.61
75497;BME280;64074;47.540;19.072;2023-04-03T09:21:13;100669.00;;;11.06;39.27
75497;BME280;64074;47.540;19.072;2023-04-03T09:24:26;100673.34;;;10.83;39.54
75497;BME280;64074;47.540;19.072;2023-04-03T09:28:09;100680.16;;;10.81;39.88
75497;BME280;64074;47.540;19.072;2023-04-03T09:33:49;100672.72;;;11.34;39.68
75497;BME280;64074;47.540;19.072;2023-04-03T09:37:59;100672.97;;;11.56;38.34
75497;BME280;64074;47.540;19.072;2023-04-03T09:42:59;100666.56;;;12.04;37.02
75497;BME280;64074;47.540;19.072;2023-04-03T09:51:27;100669.38;;;11.98;37.63
75497;BME280;64074;47.540;19.072;2023-04-03T09:54:34;100664.81;;;11.94;37.49
75497;BME280;64074;47.540;19.072;2023-04-03T09:57:47;100660.41;;;11.42;38.19
75497;BME280;64074;47.540;19.072;2023-04-03T10:00:59;100666.13;;;11.78;37.75
75497;BME280;64074;47.540;19.072;2023-04-03T10:04:18;100660.91;;;11.62;37.99
75497;BME280;64074;47.540;19.072;2023-04-03T10:07:35;100663.44;;;11.96;39.01
75497;BME280;64074;47.540;19.072;2023-04-03T10:10:44;100663.59;;;12.19;38.27
75497;BME280;64074;47.540;19.072;2023-04-03T10:14:34;100664.06;;;12.40;37.93
75497;BME280;64074;47.540;19.072;2023-04-03T10:34:28;100667.84;;;11.92;36.59
75497;BME280;64074;47.540;19.072;2023-04-03T11:29:20;100633.50;;;12.15;34.60
75497;BME280;64074;47.540;19.072;2023-04-03T11:36:46;100636.97;;;12.48;34.94
75497;BME280;64074;47.540;19.072;2023-04-03T11:39:58;100620.25;;;12.55;33.59
75497;BME280;64074;47.540;19.072;2023-04-03T11:47:02;100628.19;;;12.38;35.20
75497;BME280;64074;47.540;19.072;2023-04-03T11:51:45;100630.28;;;12.27;35.19
75497;BME280;64074;47.540;19.072;2023-04-03T11:59:21;100619.88;;;11.83;35.52
75497;BME280;64074;47.540;19.072;2023-04-03T12:17:50;100622.84;;;12.32;34.93
75497;BME280;64074;47.540;19.072;2023-04-03T12:21:01;100620.44;;;12.58;34.62
75497;BME280;64074;47.540;19.072;2023-04-03T12:27:28;100616.75;;;12.68;34.65
75497;BME280;64074;47.540;19.072;2023-04-03T12:31:01;100618.50;;;12.18;35.21
75497;BME280;64074;47.540;19.072;2023-04-03T12:34:18;100605.22;;;12.30;35.36
75497;BME280;64074;47.540;19.072;2023-04-03T12:37:56;100613.22;;;12.40;36.38
75497;BME280;64074;47.540;19.072;2023-04-03T12:41:37;100613.28;;;12.62;35.54
75497;BME280;64074;47.540;19.072;2023-04-03T12:50:32;100602.22;;;12.45;35.66
75497;BME280;64074;47.540;19.072;2023-04-03T12:58:28;100606.47;;;12.92;34.14
75497;BME280;64074;47.540;19.072;2023-04-03T13:05:31;100594.53;;;13.16;33.60
75497;BME280;64074;47.540;19.072;2023-04-03T13:13:09;100592.22;;;12.96;34.24
75497;BME280;64074;47.540;19.072;2023-04-03T13:16:16;100582.84;;;12.88;33.76
75497;BME280;64074;47.540;19.072;2023-04-03T13:23:07;100571.72;;;13.26;33.67
75497;BME280;64074;47.540;19.072;2023-04-03T13:26:11;100573.81;;;13.42;33.17
75497;BME280;64074;47.540;19.072;2023-04-03T13:33:25;100570.81;;;13.16;32.75
75497;BME280;64074;47.540;19.072;2023-04-03T13:40:51;100566.22;;;13.84;32.28
75497;BME280;64074;47.540;19.072;2023-04-03T13:47:38;100561.41;;;13.81;31.43
75497;BME280;64074;47.540;19.072;2023-04-03T13:54:38;100555.47;;;13.57;32.01
75497;BME280;64074;47.540;19.072;2023-04-03T13:58:24;100551.50;;;14.47;31.46
75497;BME280;64074;47.540;19.072;2023-04-03T14:08:28;100547.06;;;13.44;32.07
75497;BME280;64074;47.540;19.072;2023-04-03T14:12:44;100540.41;;;13.81;32.55
75497;BME280;64074;47.540;19.072;2023-04-03T14:15:40;100541.44;;;13.63;31.76
75497;BME280;64074;47.540;19.072;2023-04-03T14:19:29;100531.56;;;13.53;31.33
75497;BME280;64074;47.540;19.072;2023-04-03T14:23:07;100534.06;;;13.41;31.95
75497;BME280;64074;47.540;19.072;2023-04-03T14:26:43;100531.06;;;13.51;32.19
75497;BME280;64074;47.540;19.072;2023-04-03T14:30:31;100534.84;;;13.19;32.43
75497;BME280;64074;47.540;19.072;2023-04-03T14:33:57;100535.78;;;12.87;32.01
75497;BME280;64074;47.540;19.072;2023-04-03T14:37:28;100542.66;;;12.02;34.05
75497;BME280;64074;47.540;19.072;2023-04-03T14:40:43;100531.09;;;12.52;32.94
75497;BME280;64074;47.540;19.072;2023-04-03T14:44:37;100536.13;;;12.58;33.46
75497;BME280;64074;47.540;19.072;2023-04-03T14:48:20;100544.00;;;12.46;33.38
75497;BME280;64074;47.540;19.072;2023-04-03T14:51:27;100545.00;;;12.37;33.40
75497;BME280;64074;47.540;19.072;2023-04-03T14:54:40;100544.91;;;12.42;33.33
75497;BME280;64074;47.540;19.072;2023-04-03T14:58:14;100544.13;;;12.41;34.22
75497;BME280;64074;47.540;19.072;2023-04-03T15:01:33;100533.97;;;12.83;33.40
75497;BME280;64074;47.540;19.072;2023-04-03T15:05:08;100540.97;;;12.75;33.04
75497;BME280;64074;47.540;19.072;2023-04-03T15:08:38;100539.97;;;12.57;33.85
75497;BME280;64074;47.540;19.072;2023-04-03T15:12:09;100536.66;;;12.47;33.60
75497;BME280;64074;47.540;19.072;2023-04-03T15:15:15;100545.81;;;12.37;34.45
75497;BME280;64074;47.540;19.072;2023-04-03T15:18:26;100539.69;;;11.85;35.02
75497;BME280;64074;47.540;19.072;2023-04-03T15:21:32;100547.50;;;12.06;35.39
75497;BME280;64074;47.540;19.072;2023-04-03T15:24:43;100541.56;;;11.20;36.45
75497;BME280;64074;47.540;19.072;2023-04-03T15:28:27;100535.16;;;11.48;36.32
75497;BME280;64074;47.540;19.072;2023-04-03T15:31:36;100538.09;;;11.14;36.22
75497;BME280;64074;47.540;19.072;2023-04-03T15:34:54;100538.56;;;11.02;36.83
75497;BME280;64074;47.540;19.072;2023-04-03T15:38:04;100538.94;;;10.96;36.27
75497;BME280;64074;47.540;19.072;2023-04-03T15:41:35;100541.72;;;10.91;36.83
75497;BME280;64074;47.540;19.072;2023-04-03T15:44:49;100540.47;;;10.59;36.88
75497;BME280;64074;47.540;19.072;2023-04-03T15:48:25;100539.88;;;10.43;37.19
75497;BME280;64074;47.540;19.072;2023-04-03T15:52:02;100549.84;;;10.48;37.24
75497;BME280;64074;47.540;19.072;2023-04-03T15:55:33;100546.63;;;10.46;37.54
75497;BME280;64074;47.540;19.072;2023-04-03T15:58:57;100550.72;;;10.43;37.22
75497;BME280;64074;47.540;19.072;2023-04-03T16:02:08;100561.72;;;10.52;37.87
75497;BME280;64074;47.540;19.072;2023-04-03T16:05:39;100575.09;;;10.67;38.67
75497;BME280;64074;47.540;19.072;2023-04-03T16:09:10;100570.34;;;10.78;36.70
75497;BME280;64074;47.540;19.072;2023-04-03T16:12:20;100568.38;;;10.84;35.93
75497;BME280;64074;47.540;19.072;2023-04-03T16:15:56;100565.34;;;10.66;36.03
75497;BME280;64074;47.540;19.072;2023-04-03T16:19:31;100563.50;;;10.62;35.97
75497;BME280;64074;47.540;19.072;2023-04-03T16:23:04;100569.53;;;10.77;35.40
75497;BME280;64074;47.540;19.072;2023-04-03T16:26:18;100562.88;;;10.46;35.65
75497;BME280;64074;47.540;19.072;2023-04-03T16:29:47;100567.75;;;10.20;36.22
75497;BME280;64074;47.540;19.072;2023-04-03T16:32:57;100579.53;;;10.05;36.24
75497;BME280;64074;47.540;19.072;2023-04-03T16:36:31;100581.59;;;9.84;36.29
75497;BME280;64074;47.540;19.072;2023-04-03T16:39:42;100589.59;;;9.66;36.30
75497;BME280;64074;47.540;19.072;2023-04-03T16:43:18;100596.41;;;9.97;36.30
75497;BME280;64074;47.540;19.072;2023-04-03T16:46:46;100610.81;;;9.87;36.20
75497;BME280;64074;47.540;19.072;2023-04-03T16:49:56;100609.91;;;10.02;36.37
75497;BME280;64074;47.540;19.072;2023-04-03T16:53:28;100623.69;;;10.06;36.49
75497;BME280;64074;47.540;19.072;2023-04-03T16:56:55;100628.88;;;9.68;36.14
75497;BME280;64074;47.540;19.072;2023-04-03T17:00:30;100648.09;;;9.67;36.47
75497;BME280;64074;47.540;19.072;2023-04-03T17:03:39;100646.31;;;9.86;35.60
75497;BME280;64074;47.540;19.072;2023-04-03T17:07:10;100676.66;;;9.44;36.47
75497;BME280;64074;47.540;19.072;2023-04-03T17:10:20;100679.41;;;9.34;35.78
75497;BME280;64074;47.540;19.072;2023-04-03T17:13:40;100681.56;;;9.42;36.26
75497;BME280;64074;47.540;19.072;2023-04-03T17:17:02;100685.19;;;9.12;36.98
75497;BME280;64074;47.540;19.072;2023-04-03T17:20:12;100696.53;;;9.19;36.92
75497;BME280;64074;47.540;19.072;2023-04-03T17:23:45;100700.28;;;9.28;37.55
75497;BME280;64074;47.540;19.072;2023-04-03T17:27:14;100705.63;;;9.43;37.92
75497;BME280;64074;47.540;19.072;2023-04-03T17:30:19;100730.31;;;9.27;36.84
75497;BME280;64074;47.540;19.072;2023-04-03T17:33:29;100730.00;;;9.33;37.50
75497;BME280;64074;47.540;19.072;2023-04-03T17:37:02;100733.84;;;9.17;36.77
75497;BME280;64074;47.540;19.072;2023-04-03T17:40:31;100740.16;;;8.97;36.83
75497;BME280;64074;47.540;19.072;2023-04-03T17:43:40;100758.22;;;9.12;36.73
75497;BME280;64074;47.540;19.072;2023-04-03T17:46:49;100756.66;;;8.80;37.35
75497;BME280;64074;47.540;19.072;2023-04-03T17:50:11;100764.72;;;9.06;37.19
75497;BME280;64074;47.540;19.072;2023-04-03T17:53:24;100771.53;;;8.98;37.42
75497;BME280;64074;47.540;19.072;2023-04-03T17:56:55;100776.66;;;8.94;37.21
75497;BME280;64074;47.540;19.072;2023-04-03T18:00:24;100782.63;;;8.66;37.68
75497;BME280;64074;47.540;19.072;2023-04-03T18:03:34;100792.38;;;8.62;37.71
75497;BME280;64074;47.540;19.072;2023-04-03T18:06:47;100810.22;;;8.53;37.79
75497;BME280;64074;47.540;19.072;2023-04-03T18:09:58;100816.63;;;8.21;37.31
75497;BME280;64074;47.540;19.072;2023-04-03T18:13:21;100830.09;;;8.06;36.91
75497;BME280;64074;47.540;19.072;2023-04-03T18:16:24;100835.97;;;7.88;37.20
75497;BME280;64074;47.540;19.072;2023-04-03T18:19:33;100841.44;;;8.13;36.66
75497;BME280;64074;47.540;19.072;2023-04-03T18:22:40;100838.78;;;8.28;36.91
75497;BME280;64074;47.540;19.072;2023-04-03T18:25:47;100846.31;;;8.11;37.04
75497;BME280;64074;47.540;19.072;2023-04-03T18:28:54;100844.72;;;8.25;37.33
75497;BME280;64074;47.540;19.072;2023-04-03T18:32:05;100862.03;;;8.29;37.38
75497;BME280;64074;47.540;19.072;2023-04-03T18:35:30;100854.47;;;8.26;37.31
75497;BME280;64074;47.540;19.072;2023-04-03T18:39:06;100872.28;;;8.27;37.33
75497;BME280;64074;47.540;19.072;2023-04-03T18:42:31;100874.34;;;7.95;37.00
75497;BME280;64074;47.540;19.072;2023-04-03T18:45:41;100874.84;;;7.87;37.43
75497;BME280;64074;47.540;19.072;2023-04-03T18:49:19;100883.91;;;7.65;36.29
75497;BME280;64074;47.540;19.072;2023-04-03T18:52:37;100877.50;;;7.71;35.91
75497;BME280;64074;47.540;19.072;2023-04-03T18:56:14;100871.47;;;7.54;36.38
75497;BME280;64074;47.540;19.072;2023-04-03T18:59:52;100877.19;;;7.68;35.16
75497;BME280;64074;47.540;19.072;2023-04-03T19:03:09;100864.16;;;7.50;34.69
75497;BME280;64074;47.540;19.072;2023-04-03T19:06:18;100870.97;;;7.67;34.50
75497;BME280;64074;47.540;19.072;2023-04-03T19:09:48;100869.34;;;7.61;34.42
75497;BME280;64074;47.540;19.072;2023-04-03T19:12:58;100881.44;;;7.49;34.26
75497;BME280;64074;47.540;19.072;2023-04-03T19:16:22;100889.97;;;7.35;34.13
75497;BME280;64074;47.540;19.072;2023-04-03T19:19:25;100889.34;;;7.23;33.61
75497;BME280;64074;47.540;19.072;2023-04-03T19:22:34;100891.50;;;7.21;33.55
75497;BME280;64074;47.540;19.072;2023-04-03T19:26:12;100878.31;;;7.25;33.51
75497;BME280;64074;47.540;19.072;2023-04-03T19:29:42;100892.94;;;6.97;33.88
75497;BME280;64074;47.540;19.072;2023-04-03T19:32:52;100897.13;;;6.83;33.90
75497;BME280;64074;47.540;19.072;2023-04-03T19:36:11;100893.50;;;6.99;33.90
75497;BME280;64074;47.540;19.072;2023-04-03T19:39:37;100885.81;;;6.86;33.93
75497;BME280;64074;47.540;19.072;2023-04-03T19:42:47;100899.88;;;6.93;35.00